sensor_id;sensor_type;location;lat;lon;timestamp;temperature;humidity
12130;DHT22;6128;59.340;18.040;2023-04-03T00:01:57;-1.80;99.90
12130;DHT22;6128;59.340;18.040;2023-04-03T00:04:25;-1.80;99.90
12130;DHT22;6128;59.340;18.040;2023-04-03T00:06:52;-1.80;99.90
12130;DHT22;6128;59.340;18.040;2023-04-03T00:09:21;-1.80;99.90
12130;DHT22;6128;59.340;18.040;2023-04-03T00:11:48;-1.80;99.90
12130;DHT22;6128;59.340;18.040;2023-04-03T00:14:15;-1.80;99.90
12130;DHT22;6128;59.340;18.040;2023-04-03T00:16:43;-1.90;99.90
12130;DHT22;6128;59.340;18.040;2023-04-03T00:19:10;-1.90;99.90
12130;DHT22;6128;59.340;18.040;2023-04-03T00:21:38;-1.90;99.90
12130;DHT22;6128;59.340;18.040;2023-04-03T00:24:06;-1.90;99.90
12130;DHT22;6128;59.340;18.040;2023-04-03T00:26:35;-1.90;99.90
12130;DHT22;6128;59.340;18.040;2023-04-03T00:29:02;-1.90;99.90
12130;DHT22;6128;59.340;18.040;2023-04-03T00:31:29;-1.90;99.90
12130;DHT22;6128;59.340;18.040;2023-04-03T00:33:56;-1.90;99.90
12130;DHT22;6128;59.340;18.040;2023-04-03T00:36:24;-1.90;99.90
12130;DHT22;6128;59.340;18.040;2023-04-03T00:38:52;-1.90;99.90
12130;DHT22;6128;59.340;18.040;2023-04-03T00:41:19;-1.90;99.90
12130;DHT22;6128;59.340;18.040;2023-04-03T00:43:48;-1.90;99.90
12130;DHT22;6128;59.340;18.040;2023-04-03T00:46:18;-1.90;99.90
12130;DHT22;6128;59.340;18.040;2023-04-03T00:48:46;-1.90;99.90
12130;DHT22;6128;59.340;18.040;2023-04-03T00:51:17;-1.90;99.90
12130;DHT22;6128;59.340;18.040;2023-04-03T00:53:48;-1.90;99.90
12130;DHT22;6128;59.340;18.040;2023-04-03T00:56:18;-1.90;99.90
12130;DHT22;6128;59.340;18.040;2023-04-03T00:58:51;-2.00;99.90
12130;DHT22;6128;59.340;18.040;2023-04-03T01:01:22;-2.00;99.90
12130;DHT22;6128;59.340;18.040;2023-04-03T01:03:50;-2.00;99.90
12130;DHT22;6128;59.340;18.040;2023-04-03T01:06:21;-2.00;99.90
12130;DHT22;6128;59.340;18.040;2023-04-03T01:08:50;-2.00;99.90
12130;DHT22;6128;59.340;18.040;2023-04-03T01:11:17;-2.00;99.90
12130;DHT22;6128;59.340;18.040;2023-04-03T01:13:47;-2.00;99.90
12130;DHT22;6128;59.340;18.040;2023-04-03T01:16:15;-2.00;99.90
12130;DHT22;6128;59.340;18.040;2023-04-03T01:18:44;-2.00;99.90
12130;DHT22;6128;59.340;18.040;2023-04-03T01:24:35;-2.00;99.90
12130;DHT22;6128;59.340;18.040;2023-04-03T01:27:06;-2.00;99.90
12130;DHT22;6128;59.340;18.040;2023-04-03T01:29:37;-2.00;99.90
12130;DHT22;6128;59.340;18.040;2023-04-03T01:32:06;-2.00;99.90
12130;DHT22;6128;59.340;18.040;2023-04-03T01:34:34;-2.00;99.90
12130;DHT22;6128;59.340;18.040;2023-04-03T01:37:01;-2.00;99.90
12130;DHT22;6128;59.340;18.040;2023-04-03T01:39:28;-2.00;99.90
12130;DHT22;6128;59.340;18.040;2023-04-03T01:41:55;-2.00;99.90
12130;DHT22;6128;59.340;18.040;2023-04-03T01:44:25;-2.00;99.90
12130;DHT22;6128;59.340;18.040;2023-04-03T01:46:52;-2.00;99.90
12130;DHT22;6128;59.340;18.040;2023-04-03T01:49:24;-2.00;99.90
12130;DHT22;6128;59.340;18.040;2023-04-03T01:51:51;-2.00;99.90
12130;DHT22;6128;59.340;18.040;2023-04-03T01:54:18;-2.00;99.90
12130;DHT22;6128;59.340;18.040;2023-04-03T01:56:45;-2.00;99.90
12130;DHT22;6128;59.340;18.040;2023-04-03T01:59:12;-2.00;99.90
12130;DHT22;6128;59.340;18.040;2023-04-03T02:01:42;-2.00;99.90
12130;DHT22;6128;59.340;18.040;2023-04-03T02:04:10;-2.00;99.90
12130;DHT22;6128;59.340;18.040;2023-04-03T02:06:39;-2.00;99.90
12130;DHT22;6128;59.340;18.040;2023-04-03T02:09:09;-2.00;99.90
12130;DHT22;6128;59.340;18.040;2023-04-03T02:11:36;-2.00;99.90
12130;DHT22;6128;59.340;18.040;2023-04-03T02:14:03;-2.00;99.90
12130;DHT22;6128;59.340;18.040;2023-04-03T02:16:31;-2.00;99.90
12130;DHT22;6128;59.340;18.040;2023-04-03T02:18:58;-2.10;99.90
12130;DHT22;6128;59.340;18.040;2023-04-03T02:21:26;-2.10;99.90
12130;DHT22;6128;59.340;18.040;2023-04-03T02:23:55;-2.10;99.90
12130;DHT22;6128;59.340;18.040;2023-04-03T02:26:22;-2.10;99.90
12130;DHT22;6128;59.340;18.040;2023-04-03T02:28:49;-2.10;99.90
12130;DHT22;6128;59.340;18.040;2023-04-03T02:31:18;-2.10;99.90
12130;DHT22;6128;59.340;18.040;2023-04-03T02:33:46;-2.10;99.90
12130;DHT22;6128;59.340;18.040;2023-04-03T02:36:13;-2.10;99.90
12130;DHT22;6128;59.340;18.040;2023-04-03T02:38:40;-2.00;99.90
12130;DHT22;6128;59.340;18.040;2023-04-03T02:41:11;-2.10;99.90
12130;DHT22;6128;59.340;18.040;2023-04-03T02:43:38;-2.10;99.90
12130;DHT22;6128;59.340;18.040;2023-04-03T02:46:06;-2.10;99.90
12130;DHT22;6128;59.340;18.040;2023-04-03T02:48:33;-2.10;99.90
12130;DHT22;6128;59.340;18.040;2023-04-03T02:51:00;-2.10;99.90
12130;DHT22;6128;59.340;18.040;2023-04-03T02:53:28;-2.10;99.90
12130;DHT22;6128;59.340;18.040;2023-04-03T02:55:55;-2.10;99.90
12130;DHT22;6128;59.340;18.040;2023-04-03T02:58:23;-2.10;99.90
12130;DHT22;6128;59.340;18.040;2023-04-03T03:00:50;-2.10;99.90
12130;DHT22;6128;59.340;18.040;2023-04-03T03:03:18;-2.10;99.90
12130;DHT22;6128;59.340;18.040;2023-04-03T03:05:45;-2.10;99.90
12130;DHT22;6128;59.340;18.040;2023-04-03T03:08:13;-2.10;99.90
12130;DHT22;6128;59.340;18.040;2023-04-03T03:10:41;-2.10;99.90
12130;DHT22;6128;59.340;18.040;2023-04-03T03:13:09;-2.20;99.90
12130;DHT22;6128;59.340;18.040;2023-04-03T03:15:37;-2.20;99.90
12130;DHT22;6128;59.340;18.040;2023-04-03T03:18:05;-2.20;99.90
12130;DHT22;6128;59.340;18.040;2023-04-03T03:20:32;-2.20;99.90
12130;DHT22;6128;59.340;18.040;2023-04-03T03:22:59;-2.20;99.90
12130;DHT22;6128;59.340;18.040;2023-04-03T03:25:26;-2.20;99.90
12130;DHT22;6128;59.340;18.040;2023-04-03T03:27:54;-2.30;99.90
12130;DHT22;6128;59.340;18.040;2023-04-03T03:30:21;-2.30;99.90
12130;DHT22;6128;59.340;18.040;2023-04-03T03:32:50;-2.30;99.90
12130;DHT22;6128;59.340;18.040;2023-04-03T03:35:17;-2.40;99.90
12130;DHT22;6128;59.340;18.040;2023-04-03T03:37:44;-2.40;99.90
12130;DHT22;6128;59.340;18.040;2023-04-03T03:40:12;-2.40;99.90
12130;DHT22;6128;59.340;18.040;2023-04-03T03:42:39;-2.50;99.90
12130;DHT22;6128;59.340;18.040;2023-04-03T03:45:08;-2.40;99.90
12130;DHT22;6128;59.340;18.040;2023-04-03T03:47:35;-2.50;99.90
12130;DHT22;6128;59.340;18.040;2023-04-03T03:50:05;-2.50;99.90
12130;DHT22;6128;59.340;18.040;2023-04-03T03:52:32;-2.50;99.90
12130;DHT22;6128;59.340;18.040;2023-04-03T03:55:03;-2.50;99.90
12130;DHT22;6128;59.340;18.040;2023-04-03T03:57:30;-2.50;99.90
12130;DHT22;6128;59.340;18.040;2023-04-03T03:59:57;-2.50;99.90
12130;DHT22;6128;59.340;18.040;2023-04-03T04:02:24;-2.50;99.90
12130;DHT22;6128;59.340;18.040;2023-04-03T04:04:51;-2.50;99.90
12130;DHT22;6128;59.340;18.040;2023-04-03T04:07:20;-2.50;99.90
12130;DHT22;6128;59.340;18.040;2023-04-03T04:09:47;-2.50;99.90
12130;DHT22;6128;59.340;18.040;2023-04-03T04:12:15;-2.60;99.90
12130;DHT22;6128;59.340;18.040;2023-04-03T04:14:42;-2.60;99.90
12130;DHT22;6128;59.340;18.040;2023-04-03T04:17:12;-2.60;99.90
12130;DHT22;6128;59.340;18.040;2023-04-03T04:19:39;-2.60;99.90
12130;DHT22;6128;59.340;18.040;2023-04-03T04:22:06;-2.60;99.90
12130;DHT22;6128;59.340;18.040;2023-04-03T04:24:35;-2.60;99.90
12130;DHT22;6128;59.340;18.040;2023-04-03T04:27:02;-2.60;99.90
12130;DHT22;6128;59.340;18.040;2023-04-03T04:29:29;-2.60;99.90
12130;DHT22;6128;59.340;18.040;2023-04-03T04:32:04;-2.60;99.90
12130;DHT22;6128;59.340;18.040;2023-04-03T04:34:31;-2.60;99.90
12130;DHT22;6128;59.340;18.040;2023-04-03T04:36:58;-2.60;99.90
12130;DHT22;6128;59.340;18.040;2023-04-03T04:39:25;-2.60;99.90
12130;DHT22;6128;59.340;18.040;2023-04-03T04:41:54;-2.60;99.90
12130;DHT22;6128;59.340;18.040;2023-04-03T04:44:22;-2.60;99.90
12130;DHT22;6128;59.340;18.040;2023-04-03T04:46:49;-2.60;99.90
12130;DHT22;6128;59.340;18.040;2023-04-03T04:49:16;-2.60;99.90
12130;DHT22;6128;59.340;18.040;2023-04-03T04:51:43;-2.60;99.90
12130;DHT22;6128;59.340;18.040;2023-04-03T04:54:11;-2.50;99.90
12130;DHT22;6128;59.340;18.040;2023-04-03T04:56:38;-2.50;99.90
12130;DHT22;6128;59.340;18.040;2023-04-03T04:59:07;-2.50;99.90
12130;DHT22;6128;59.340;18.040;2023-04-03T05:01:34;-2.40;99.90
12130;DHT22;6128;59.340;18.040;2023-04-03T05:04:02;-2.40;99.90
12130;DHT22;6128;59.340;18.040;2023-04-03T05:06:29;-2.40;99.90
12130;DHT22;6128;59.340;18.040;2023-04-03T05:08:57;-2.40;99.90
12130;DHT22;6128;59.340;18.040;2023-04-03T05:11:24;-2.30;99.90
12130;DHT22;6128;59.340;18.040;2023-04-03T05:13:52;-2.30;99.90
12130;DHT22;6128;59.340;18.040;2023-04-03T05:16:21;-2.20;99.90
12130;DHT22;6128;59.340;18.040;2023-04-03T05:18:48;-2.20;99.90
12130;DHT22;6128;59.340;18.040;2023-04-03T05:21:16;-2.20;99.90
12130;DHT22;6128;59.340;18.040;2023-04-03T05:23:44;-2.10;99.90
12130;DHT22;6128;59.340;18.040;2023-04-03T05:26:11;-2.10;99.90
12130;DHT22;6128;59.340;18.040;2023-04-03T05:28:39;-2.00;99.90
12130;DHT22;6128;59.340;18.040;2023-04-03T05:31:12;-2.00;99.90
12130;DHT22;6128;59.340;18.040;2023-04-03T05:33:41;-2.00;99.90
12130;DHT22;6128;59.340;18.040;2023-04-03T05:36:09;-2.00;99.90
12130;DHT22;6128;59.340;18.040;2023-04-03T05:38:38;-1.90;99.90
12130;DHT22;6128;59.340;18.040;2023-04-03T05:41:05;-2.00;99.90
12130;DHT22;6128;59.340;18.040;2023-04-03T05:43:32;-2.00;99.90
12130;DHT22;6128;59.340;18.040;2023-04-03T05:46:03;-1.90;99.90
12130;DHT22;6128;59.340;18.040;2023-04-03T05:48:32;-1.80;99.90
12130;DHT22;6128;59.340;18.040;2023-04-03T05:51:18;-1.80;99.90
12130;DHT22;6128;59.340;18.040;2023-04-03T05:53:58;-1.70;99.90
12130;DHT22;6128;59.340;18.040;2023-04-03T05:56:26;-1.50;99.90
12130;DHT22;6128;59.340;18.040;2023-04-03T05:58:55;-1.50;99.90
12130;DHT22;6128;59.340;18.040;2023-04-03T06:01:22;-1.50;99.90
12130;DHT22;6128;59.340;18.040;2023-04-03T06:03:50;-1.50;99.90
12130;DHT22;6128;59.340;18.040;2023-04-03T06:06:19;-1.40;99.90
12130;DHT22;6128;59.340;18.040;2023-04-03T06:08:47;-1.40;99.90
12130;DHT22;6128;59.340;18.040;2023-04-03T06:11:16;-1.30;99.90
12130;DHT22;6128;59.340;18.040;2023-04-03T06:13:43;-1.20;99.90
12130;DHT22;6128;59.340;18.040;2023-04-03T06:16:12;-1.20;99.90
12130;DHT22;6128;59.340;18.040;2023-04-03T06:18:41;-1.10;99.90
12130;DHT22;6128;59.340;18.040;2023-04-03T06:21:08;-1.10;99.90
12130;DHT22;6128;59.340;18.040;2023-04-03T06:23:37;-1.10;99.90
12130;DHT22;6128;59.340;18.040;2023-04-03T06:26:04;-1.10;99.90
12130;DHT22;6128;59.340;18.040;2023-04-03T06:28:32;-1.00;99.90
12130;DHT22;6128;59.340;18.040;2023-04-03T06:30:59;-0.90;99.90
12130;DHT22;6128;59.340;18.040;2023-04-03T06:33:27;-0.80;99.90
12130;DHT22;6128;59.340;18.040;2023-04-03T06:35:58;-0.80;99.90
12130;DHT22;6128;59.340;18.040;2023-04-03T06:38:25;-0.70;99.90
12130;DHT22;6128;59.340;18.040;2023-04-03T06:40:54;-0.60;99.90
12130;DHT22;6128;59.340;18.040;2023-04-03T06:43:21;-0.50;99.90
12130;DHT22;6128;59.340;18.040;2023-04-03T06:45:50;-0.40;99.90
12130;DHT22;6128;59.340;18.040;2023-04-03T06:48:20;-0.20;99.90
12130;DHT22;6128;59.340;18.040;2023-04-03T06:50:47;-0.20;99.90
12130;DHT22;6128;59.340;18.040;2023-04-03T06:53:15;0.00;99.90
12130;DHT22;6128;59.340;18.040;2023-04-03T06:55:43;0.20;99.90
12130;DHT22;6128;59.340;18.040;2023-04-03T06:58:12;0.40;99.90
12130;DHT22;6128;59.340;18.040;2023-04-03T07:00:39;0.80;99.90
12130;DHT22;6128;59.340;18.040;2023-04-03T07:03:06;1.40;99.90
12130;DHT22;6128;59.340;18.040;2023-04-03T07:05:34;2.50;99.90
12130;DHT22;6128;59.340;18.040;2023-04-03T07:08:01;3.60;99.90
12130;DHT22;6128;59.340;18.040;2023-04-03T07:10:28;4.60;99.90
12130;DHT22;6128;59.340;18.040;2023-04-03T07:12:56;5.20;99.90
12130;DHT22;6128;59.340;18.040;2023-04-03T07:15:27;6.00;99.90
12130;DHT22;6128;59.340;18.040;2023-04-03T07:17:56;6.20;99.90
12130;DHT22;6128;59.340;18.040;2023-04-03T07:20:24;6.70;99.90
12130;DHT22;6128;59.340;18.040;2023-04-03T07:22:51;7.10;99.90
12130;DHT22;6128;59.340;18.040;2023-04-03T07:25:21;6.80;99.90
12130;DHT22;6128;59.340;18.040;2023-04-03T07:27:48;6.70;99.90
12130;DHT22;6128;59.340;18.040;2023-04-03T07:30:17;7.40;99.90
12130;DHT22;6128;59.340;18.040;2023-04-03T07:32:46;7.30;99.90
12130;DHT22;6128;59.340;18.040;2023-04-03T07:35:13;7.60;99.90
12130;DHT22;6128;59.340;18.040;2023-04-03T07:37:41;8.00;99.90
12130;DHT22;6128;59.340;18.040;2023-04-03T07:40:08;8.20;99.90
12130;DHT22;6128;59.340;18.040;2023-04-03T07:42:36;8.50;99.90
12130;DHT22;6128;59.340;18.040;2023-04-03T07:45:04;9.00;99.90
12130;DHT22;6128;59.340;18.040;2023-04-03T07:47:31;9.20;99.90
12130;DHT22;6128;59.340;18.040;2023-04-03T07:50:00;9.10;99.90
12130;DHT22;6128;59.340;18.040;2023-04-03T07:52:27;8.90;99.90
12130;DHT22;6128;59.340;18.040;2023-04-03T07:54:54;8.60;99.90
12130;DHT22;6128;59.340;18.040;2023-04-03T07:57:21;8.80;99.90
12130;DHT22;6128;59.340;18.040;2023-04-03T07:59:48;9.20;99.90
12130;DHT22;6128;59.340;18.040;2023-04-03T08:02:16;8.80;99.90
12130;DHT22;6128;59.340;18.040;2023-04-03T08:04:43;8.60;99.90
12130;DHT22;6128;59.340;18.040;2023-04-03T08:07:12;8.70;99.90
12130;DHT22;6128;59.340;18.040;2023-04-03T08:09:39;8.60;99.90
12130;DHT22;6128;59.340;18.040;2023-04-03T08:12:06;7.50;99.90
12130;DHT22;6128;59.340;18.040;2023-04-03T08:14:33;7.20;99.90
12130;DHT22;6128;59.340;18.040;2023-04-03T08:17:01;7.00;99.90
12130;DHT22;6128;59.340;18.040;2023-04-03T08:19:30;6.80;99.90
12130;DHT22;6128;59.340;18.040;2023-04-03T08:21:57;7.10;99.90
12130;DHT22;6128;59.340;18.040;2023-04-03T08:24:27;7.40;99.90
12130;DHT22;6128;59.340;18.040;2023-04-03T08:26:55;7.80;99.90
12130;DHT22;6128;59.340;18.040;2023-04-03T08:29:22;8.00;99.90
12130;DHT22;6128;59.340;18.040;2023-04-03T08:31:50;8.30;99.90
12130;DHT22;6128;59.340;18.040;2023-04-03T08:34:18;8.40;99.90
12130;DHT22;6128;59.340;18.040;2023-04-03T08:36:45;8.50;99.90
12130;DHT22;6128;59.340;18.040;2023-04-03T08:39:13;8.70;99.90
12130;DHT22;6128;59.340;18.040;2023-04-03T08:41:43;8.80;99.90
12130;DHT22;6128;59.340;18.040;2023-04-03T08:44:19;9.10;99.90
12130;DHT22;6128;59.340;18.040;2023-04-03T08:47:01;9.20;99.90
12130;DHT22;6128;59.340;18.040;2023-04-03T08:49:31;9.40;99.90
12130;DHT22;6128;59.340;18.040;2023-04-03T08:52:02;9.20;99.90
12130;DHT22;6128;59.340;18.040;2023-04-03T08:54:33;8.80;99.90
12130;DHT22;6128;59.340;18.040;2023-04-03T08:57:04;8.60;99.90
12130;DHT22;6128;59.340;18.040;2023-04-03T08:59:34;8.30;99.90
12130;DHT22;6128;59.340;18.040;2023-04-03T09:02:17;8.70;99.90
12130;DHT22;6128;59.340;18.040;2023-04-03T09:04:48;9.30;99.90
12130;DHT22;6128;59.340;18.040;2023-04-03T09:07:20;9.40;99.90
12130;DHT22;6128;59.340;18.040;2023-04-03T09:09:49;9.60;99.90
12130;DHT22;6128;59.340;18.040;2023-04-03T09:12:21;10.50;99.90
12130;DHT22;6128;59.340;18.040;2023-04-03T09:14:59;11.20;99.90
12130;DHT22;6128;59.340;18.040;2023-04-03T09:17:37;11.60;99.90
12130;DHT22;6128;59.340;18.040;2023-04-03T09:20:14;11.00;99.90
12130;DHT22;6128;59.340;18.040;2023-04-03T09:22:44;10.50;99.90
12130;DHT22;6128;59.340;18.040;2023-04-03T09:25:13;9.40;99.90
12130;DHT22;6128;59.340;18.040;2023-04-03T09:27:42;8.40;99.90
12130;DHT22;6128;59.340;18.040;2023-04-03T09:30:13;6.90;99.80
12130;DHT22;6128;59.340;18.040;2023-04-03T09:32:44;6.10;99.60
12130;DHT22;6128;59.340;18.040;2023-04-03T09:35:19;5.60;99.50
12130;DHT22;6128;59.340;18.040;2023-04-03T09:37:48;5.30;99.40
12130;DHT22;6128;59.340;18.040;2023-04-03T09:40:33;5.10;99.30
12130;DHT22;6128;59.340;18.040;2023-04-03T09:43:21;4.70;99.00
12130;DHT22;6128;59.340;18.040;2023-04-03T09:45:52;4.50;98.90
12130;DHT22;6128;59.340;18.040;2023-04-03T09:48:21;4.40;98.80
12130;DHT22;6128;59.340;18.040;2023-04-03T09:50:55;4.40;98.70
12130;DHT22;6128;59.340;18.040;2023-04-03T09:53:30;4.30;98.60
12130;DHT22;6128;59.340;18.040;2023-04-03T09:55:59;4.30;98.50
12130;DHT22;6128;59.340;18.040;2023-04-03T09:58:32;4.20;98.40
12130;DHT22;6128;59.340;18.040;2023-04-03T10:01:02;4.10;98.30
12130;DHT22;6128;59.340;18.040;2023-04-03T10:03:31;4.10;98.20
12130;DHT22;6128;59.340;18.040;2023-04-03T10:06:01;4.20;98.10
12130;DHT22;6128;59.340;18.040;2023-04-03T10:08:31;4.20;97.90
12130;DHT22;6128;59.340;18.040;2023-04-03T10:11:09;4.20;97.80
12130;DHT22;6128;59.340;18.040;2023-04-03T10:13:49;4.10;97.70
12130;DHT22;6128;59.340;18.040;2023-04-03T10:16:25;4.10;97.60
12130;DHT22;6128;59.340;18.040;2023-04-03T10:19:22;4.10;97.60
12130;DHT22;6128;59.340;18.040;2023-04-03T10:21:57;4.10;97.50
12130;DHT22;6128;59.340;18.040;2023-04-03T10:24:33;4.10;97.50
12130;DHT22;6128;59.340;18.040;2023-04-03T10:27:06;4.10;97.40
12130;DHT22;6128;59.340;18.040;2023-04-03T10:29:40;4.10;97.40
12130;DHT22;6128;59.340;18.040;2023-04-03T10:32:24;4.20;97.40
12130;DHT22;6128;59.340;18.040;2023-04-03T10:34:58;4.40;97.30
12130;DHT22;6128;59.340;18.040;2023-04-03T10:37:32;4.40;97.30
12130;DHT22;6128;59.340;18.040;2023-04-03T10:40:10;4.40;97.30
12130;DHT22;6128;59.340;18.040;2023-04-03T10:43:06;4.40;97.40
12130;DHT22;6128;59.340;18.040;2023-04-03T10:45:57;4.40;97.40
12130;DHT22;6128;59.340;18.040;2023-04-03T10:48:43;4.40;97.40
12130;DHT22;6128;59.340;18.040;2023-04-03T10:51:24;4.30;97.30
12130;DHT22;6128;59.340;18.040;2023-04-03T10:53:57;4.30;97.30
12130;DHT22;6128;59.340;18.040;2023-04-03T10:56:31;4.40;97.30
12130;DHT22;6128;59.340;18.040;2023-04-03T10:59:13;4.30;97.20
12130;DHT22;6128;59.340;18.040;2023-04-03T11:01:46;4.40;97.10
12130;DHT22;6128;59.340;18.040;2023-04-03T11:04:16;4.50;97.10
12130;DHT22;6128;59.340;18.040;2023-04-03T11:06:47;4.60;97.10
12130;DHT22;6128;59.340;18.040;2023-04-03T11:09:22;4.60;97.10
12130;DHT22;6128;59.340;18.040;2023-04-03T11:11:53;4.70;97.10
12130;DHT22;6128;59.340;18.040;2023-04-03T11:14:26;4.80;97.10
12130;DHT22;6128;59.340;18.040;2023-04-03T11:17:04;4.80;97.10
12130;DHT22;6128;59.340;18.040;2023-04-03T11:19:35;4.80;97.10
12130;DHT22;6128;59.340;18.040;2023-04-03T11:22:11;4.90;97.10
12130;DHT22;6128;59.340;18.040;2023-04-03T11:24:43;4.90;96.90
12130;DHT22;6128;59.340;18.040;2023-04-03T11:27:17;4.80;96.60
12130;DHT22;6128;59.340;18.040;2023-04-03T11:29:49;4.90;96.40
12130;DHT22;6128;59.340;18.040;2023-04-03T11:32:42;4.90;96.10
12130;DHT22;6128;59.340;18.040;2023-04-03T11:35:17;4.90;95.80
12130;DHT22;6128;59.340;18.040;2023-04-03T11:37:46;4.90;95.60
12130;DHT22;6128;59.340;18.040;2023-04-03T11:40:22;4.90;95.50
12130;DHT22;6128;59.340;18.040;2023-04-03T11:42:54;5.00;95.40
12130;DHT22;6128;59.340;18.040;2023-04-03T11:45:31;5.10;95.10
12130;DHT22;6128;59.340;18.040;2023-04-03T11:48:02;5.00;94.70
12130;DHT22;6128;59.340;18.040;2023-04-03T11:50:48;5.00;94.00
12130;DHT22;6128;59.340;18.040;2023-04-03T11:53:34;4.90;92.80
12130;DHT22;6128;59.340;18.040;2023-04-03T11:56:28;4.90;92.50
12130;DHT22;6128;59.340;18.040;2023-04-03T11:59:36;5.00;92.20
12130;DHT22;6128;59.340;18.040;2023-04-03T12:02:35;5.10;91.70
12130;DHT22;6128;59.340;18.040;2023-04-03T12:05:26;5.10;91.60
12130;DHT22;6128;59.340;18.040;2023-04-03T12:08:24;5.20;91.20
12130;DHT22;6128;59.340;18.040;2023-04-03T12:11:14;5.20;91.20
12130;DHT22;6128;59.340;18.040;2023-04-03T12:14:02;5.20;90.90
12130;DHT22;6128;59.340;18.040;2023-04-03T12:16:32;5.10;90.20
12130;DHT22;6128;59.340;18.040;2023-04-03T12:19:02;5.20;90.00
12130;DHT22;6128;59.340;18.040;2023-04-03T12:22:06;5.20;89.70
12130;DHT22;6128;59.340;18.040;2023-04-03T12:24:35;5.10;86.80
12130;DHT22;6128;59.340;18.040;2023-04-03T12:27:09;5.00;86.40
12130;DHT22;6128;59.340;18.040;2023-04-03T12:29:40;5.20;86.50
12130;DHT22;6128;59.340;18.040;2023-04-03T12:32:21;5.20;85.80
12130;DHT22;6128;59.340;18.040;2023-04-03T12:35:11;5.20;85.40
12130;DHT22;6128;59.340;18.040;2023-04-03T12:37:59;5.10;84.90
12130;DHT22;6128;59.340;18.040;2023-04-03T12:40:33;5.20;84.50
12130;DHT22;6128;59.340;18.040;2023-04-03T12:43:09;5.30;83.90
12130;DHT22;6128;59.340;18.040;2023-04-03T12:45:42;5.30;83.20
12130;DHT22;6128;59.340;18.040;2023-04-03T12:48:15;5.30;79.60
12130;DHT22;6128;59.340;18.040;2023-04-03T12:50:45;5.20;80.00
12130;DHT22;6128;59.340;18.040;2023-04-03T12:53:16;5.20;79.80
12130;DHT22;6128;59.340;18.040;2023-04-03T12:55:45;5.20;79.10
12130;DHT22;6128;59.340;18.040;2023-04-03T12:58:20;5.20;79.20
12130;DHT22;6128;59.340;18.040;2023-04-03T13:00:59;5.20;78.00
12130;DHT22;6128;59.340;18.040;2023-04-03T13:03:26;5.20;77.70
12130;DHT22;6128;59.340;18.040;2023-04-03T13:05:55;5.20;77.40
12130;DHT22;6128;59.340;18.040;2023-04-03T13:08:25;5.20;77.50
12130;DHT22;6128;59.340;18.040;2023-04-03T13:10:56;5.20;77.50
12130;DHT22;6128;59.340;18.040;2023-04-03T13:13:24;5.20;78.20
12130;DHT22;6128;59.340;18.040;2023-04-03T13:15:53;5.30;78.60
12130;DHT22;6128;59.340;18.040;2023-04-03T13:18:26;5.20;79.00
12130;DHT22;6128;59.340;18.040;2023-04-03T13:20:55;5.20;79.30
12130;DHT22;6128;59.340;18.040;2023-04-03T13:23:25;5.20;79.50
12130;DHT22;6128;59.340;18.040;2023-04-03T13:25:52;5.20;79.90
12130;DHT22;6128;59.340;18.040;2023-04-03T13:28:22;5.40;80.20
12130;DHT22;6128;59.340;18.040;2023-04-03T13:30:56;5.50;80.60
12130;DHT22;6128;59.340;18.040;2023-04-03T13:33:26;5.50;81.00
12130;DHT22;6128;59.340;18.040;2023-04-03T13:36:02;5.50;80.90
12130;DHT22;6128;59.340;18.040;2023-04-03T13:38:33;5.50;81.00
12130;DHT22;6128;59.340;18.040;2023-04-03T13:41:04;5.50;81.00
12130;DHT22;6128;59.340;18.040;2023-04-03T13:43:36;5.40;81.00
12130;DHT22;6128;59.340;18.040;2023-04-03T13:46:20;5.40;80.90
12130;DHT22;6128;59.340;18.040;2023-04-03T13:48:51;5.40;80.90
12130;DHT22;6128;59.340;18.040;2023-04-03T13:51:23;5.40;81.30
12130;DHT22;6128;59.340;18.040;2023-04-03T13:54:00;5.50;81.70
12130;DHT22;6128;59.340;18.040;2023-04-03T13:56:31;5.40;81.90
12130;DHT22;6128;59.340;18.040;2023-04-03T13:59:20;5.40;82.00
12130;DHT22;6128;59.340;18.040;2023-04-03T14:01:52;5.50;82.20
12130;DHT22;6128;59.340;18.040;2023-04-03T14:04:26;5.60;82.50
12130;DHT22;6128;59.340;18.040;2023-04-03T14:06:55;5.60;82.70
12130;DHT22;6128;59.340;18.040;2023-04-03T14:09:27;5.50;82.90
12130;DHT22;6128;59.340;18.040;2023-04-03T14:11:57;5.40;83.00
12130;DHT22;6128;59.340;18.040;2023-04-03T14:14:29;5.40;83.10
12130;DHT22;6128;59.340;18.040;2023-04-03T14:17:00;5.40;83.20
12130;DHT22;6128;59.340;18.040;2023-04-03T14:19:29;5.40;83.20
12130;DHT22;6128;59.340;18.040;2023-04-03T14:21:58;5.50;83.30
12130;DHT22;6128;59.340;18.040;2023-04-03T14:24:28;5.50;83.40
12130;DHT22;6128;59.340;18.040;2023-04-03T14:26:58;5.60;83.60
12130;DHT22;6128;59.340;18.040;2023-04-03T14:29:28;5.50;83.70
12130;DHT22;6128;59.340;18.040;2023-04-03T14:31:56;5.50;83.80
12130;DHT22;6128;59.340;18.040;2023-04-03T14:34:24;5.40;83.80
12130;DHT22;6128;59.340;18.040;2023-04-03T14:36:57;5.50;83.80
12130;DHT22;6128;59.340;18.040;2023-04-03T14:39:25;5.50;83.80
12130;DHT22;6128;59.340;18.040;2023-04-03T14:41:53;5.60;83.90
12130;DHT22;6128;59.340;18.040;2023-04-03T14:44:20;5.60;84.00
12130;DHT22;6128;59.340;18.040;2023-04-03T14:46:48;5.70;84.20
12130;DHT22;6128;59.340;18.040;2023-04-03T14:49:19;5.70;84.40
12130;DHT22;6128;59.340;18.040;2023-04-03T14:51:47;5.60;84.70
12130;DHT22;6128;59.340;18.040;2023-04-03T14:54:17;5.60;84.90
12130;DHT22;6128;59.340;18.040;2023-04-03T14:56:44;5.60;85.00
12130;DHT22;6128;59.340;18.040;2023-04-03T14:59:14;5.60;85.10
12130;DHT22;6128;59.340;18.040;2023-04-03T15:01:43;5.60;85.00
12130;DHT22;6128;59.340;18.040;2023-04-03T15:04:12;5.50;85.10
12130;DHT22;6128;59.340;18.040;2023-04-03T15:06:40;5.40;85.10
12130;DHT22;6128;59.340;18.040;2023-04-03T15:09:15;5.40;85.10
12130;DHT22;6128;59.340;18.040;2023-04-03T15:11:45;5.50;85.10
12130;DHT22;6128;59.340;18.040;2023-04-03T15:14:14;5.40;85.10
12130;DHT22;6128;59.340;18.040;2023-04-03T15:16:41;5.40;85.40
12130;DHT22;6128;59.340;18.040;2023-04-03T15:19:09;5.40;85.30
12130;DHT22;6128;59.340;18.040;2023-04-03T15:21:36;5.40;85.40
12130;DHT22;6128;59.340;18.040;2023-04-03T15:24:04;5.30;85.40
12130;DHT22;6128;59.340;18.040;2023-04-03T15:26:31;5.20;85.40
12130;DHT22;6128;59.340;18.040;2023-04-03T15:29:00;5.20;85.20
12130;DHT22;6128;59.340;18.040;2023-04-03T15:31:29;5.20;85.10
12130;DHT22;6128;59.340;18.040;2023-04-03T15:33:57;5.00;85.10
12130;DHT22;6128;59.340;18.040;2023-04-03T15:36:25;4.90;84.90
12130;DHT22;6128;59.340;18.040;2023-04-03T15:38:53;4.90;84.80
12130;DHT22;6128;59.340;18.040;2023-04-03T15:41:20;4.90;84.70
12130;DHT22;6128;59.340;18.040;2023-04-03T15:43:48;4.90;84.70
12130;DHT22;6128;59.340;18.040;2023-04-03T15:46:15;4.80;84.50
12130;DHT22;6128;59.340;18.040;2023-04-03T15:48:46;4.80;84.50
12130;DHT22;6128;59.340;18.040;2023-04-03T15:51:13;4.70;84.60
12130;DHT22;6128;59.340;18.040;2023-04-03T15:53:40;4.70;84.70
12130;DHT22;6128;59.340;18.040;2023-04-03T15:56:08;4.60;84.70
12130;DHT22;6128;59.340;18.040;2023-04-03T15:58:35;4.60;84.90
12130;DHT22;6128;59.340;18.040;2023-04-03T16:01:02;4.60;85.00
12130;DHT22;6128;59.340;18.040;2023-04-03T16:03:30;4.50;85.10
12130;DHT22;6128;59.340;18.040;2023-04-03T16:05:58;4.50;85.20